Time;durP1;ratioP1;P1;durP2;ratioP2;P2;SDS_P1;SDS_P2;PMS_P1;PMS_P2;Temp;Humidity;BMP_temperature;BMP_pressure;BME280_temperature;BME280_humidity;BME280_pressure;Samples;Min_cycle;Max_cycle;Signal;HPM_P1;HPM_P2
2022/11/17 00:02:16;;;;;;;4.45;3.00;;;;;;;10.07;100.00;98531.75;5035080;28;20209;-74
2022/11/17 00:04:44;;;;;;;6.05;3.20;;;;;;;10.10;100.00;98526.13;5036246;28;20197;-73
2022/11/17 00:07:10;;;;;;;7.75;3.17;;;;;;;10.11;100.00;98519.78;5040445;28;20218;-73
2022/11/17 00:09:37;;;;;;;6.90;3.25;;;;;;;10.10;100.00;98514.50;5043560;28;20289;-74
2022/11/17 00:14:48;;;;;;;7.15;2.80;;;;;;;10.23;100.00;98494.66;5034525;28;20675;-74
2022/11/17 00:17:16;;;;;;;4.43;3.30;;;;;;;10.21;100.00;98499.28;5041066;28;20225;-72
2022/11/17 00:22:26;;;;;;;9.55;3.38;;;;;;;10.17;100.00;98494.25;5040178;28;20697;-74
2022/11/17 00:24:53;;;;;;;9.88;3.70;;;;;;;10.14;100.00;98486.44;5040867;28;20205;-74
2022/11/17 00:27:19;;;;;;;5.53;3.00;;;;;;;10.19;100.00;98486.94;5043866;28;20222;-74
2022/11/17 00:29:46;;;;;;;5.15;2.80;;;;;;;10.13;100.00;98484.69;5034056;28;20244;-74
2022/11/17 00:35:10;;;;;;;6.03;3.17;;;;;;;10.14;100.00;98471.13;4978456;28;20196;-75
2022/11/17 00:38:14;;;;;;;5.65;3.30;;;;;;;10.15;100.00;98470.19;4967556;28;20215;-74
2022/11/17 00:40:25;;;;;;;5.20;2.80;;;;;;;10.12;100.00;98472.22;4981458;28;20627;-74
2022/11/17 00:42:51;;;;;;;5.53;3.10;;;;;;;10.18;100.00;98464.56;4978653;28;20208;-74
2022/11/17 00:45:18;;;;;;;6.60;3.67;;;;;;;10.09;100.00;98454.50;4974353;28;20220;-75
2022/11/17 00:47:44;;;;;;;6.78;2.95;;;;;;;10.11;100.00;98452.56;4981378;28;20231;-75
2022/11/17 00:50:12;;;;;;;7.30;3.55;;;;;;;10.08;100.00;98447.38;4982649;28;20619;-73
2022/11/17 00:52:39;;;;;;;5.10;3.30;;;;;;;10.19;100.00;98439.38;4977245;28;20686;-76
2022/11/17 00:55:06;;;;;;;6.57;3.08;;;;;;;10.11;100.00;98431.03;4984424;28;20199;-74
2022/11/17 00:57:33;;;;;;;4.85;2.90;;;;;;;10.07;100.00;98420.63;4979490;28;20307;-73
2022/11/17 00:59:59;;;;;;;8.05;3.22;;;;;;;10.06;100.00;98419.75;4972307;28;20220;-74
2022/11/17 01:02:26;;;;;;;4.78;2.88;;;;;;;10.12;100.00;98416.59;4972705;28;20211;-73
2022/11/17 01:04:52;;;;;;;5.47;3.25;;;;;;;10.05;100.00;98420.72;4977228;28;20622;-75
2022/11/17 01:07:21;;;;;;;4.88;3.10;;;;;;;10.08;100.00;98420.50;4973650;28;20712;-75
2022/11/17 01:09:48;;;;;;;4.78;3.10;;;;;;;10.00;100.00;98413.00;5019171;28;20198;-73
2022/11/17 01:12:14;;;;;;;4.88;2.50;;;;;;;9.98;100.00;98411.41;5040371;28;20201;-75
2022/11/17 01:14:41;;;;;;;7.25;3.20;;;;;;;9.97;100.00;98405.19;5031925;28;20191;-73
2022/11/17 01:17:07;;;;;;;4.20;3.40;;;;;;;9.95;100.00;98408.94;5041829;28;20232;-75
2022/11/17 01:19:34;;;;;;;5.47;3.92;;;;;;;10.05;100.00;98401.91;5032881;28;20316;-73
2022/11/17 01:22:00;;;;;;;8.13;3.85;;;;;;;10.08;100.00;98395.44;5040474;28;20671;-75
2022/11/17 01:24:28;;;;;;;8.68;3.50;;;;;;;10.13;100.00;98390.56;5039767;28;20269;-75
2022/11/17 01:26:55;;;;;;;4.78;3.60;;;;;;;10.11;100.00;98388.00;5047185;28;20225;-75
2022/11/17 01:29:21;;;;;;;4.80;2.95;;;;;;;10.13;100.00;98386.06;5038096;28;20295;-73
2022/11/17 01:31:50;;;;;;;6.75;2.83;;;;;;;10.18;100.00;98372.25;5039638;28;20194;-73
2022/11/17 01:34:17;;;;;;;3.80;2.42;;;;;;;10.20;100.00;98365.78;5041844;28;20200;-75
2022/11/17 01:39:31;;;;;;;5.10;2.90;;;;;;;10.20;100.00;98354.19;5048634;28;20223;-73
2022/11/17 01:42:02;;;;;;;7.65;3.28;;;;;;;10.17;100.00;98343.63;5050875;28;20201;-75
2022/11/17 01:44:56;;;;;;;10.75;6.25;;;;;;;10.21;100.00;98343.28;5041801;28;20205;-72
2022/11/17 01:47:28;;;;;;;5.75;3.40;;;;;;;10.18;100.00;98339.97;5034937;28;20236;-72
2022/11/17 01:49:59;;;;;;;4.68;2.60;;;;;;;10.20;100.00;98333.50;5040785;28;20595;-75
2022/11/17 01:52:28;;;;;;;4.05;2.55;;;;;;;10.25;100.00;98322.41;5041895;28;20201;-75
2022/11/17 01:54:56;;;;;;;4.70;2.58;;;;;;;10.20;100.00;98312.00;5033974;28;20202;-74
2022/11/17 01:57:28;;;;;;;3.13;2.80;;;;;;;10.23;100.00;98309.06;5034647;28;20225;-74
2022/11/17 02:00:00;;;;;;;3.92;2.90;;;;;;;10.25;100.00;98300.88;5033862;28;20642;-74
2022/11/17 02:02:27;;;;;;;6.30;3.00;;;;;;;10.18;100.00;98303.19;5039915;28;20201;-74
2022/11/17 02:05:01;;;;;;;6.47;2.75;;;;;;;10.21;100.00;98299.41;5042478;28;20205;-73
2022/11/17 02:07:31;;;;;;;8.10;3.08;;;;;;;10.19;100.00;98294.13;5039514;28;20221;-72
2022/11/17 02:10:02;;;;;;;7.05;2.78;;;;;;;10.13;100.00;98286.53;5055085;28;20221;-72
2022/11/17 02:12:31;;;;;;;4.90;2.97;;;;;;;10.21;100.00;98286.78;5050809;28;20198;-74
2022/11/17 02:14:58;;;;;;;4.65;3.00;;;;;;;10.30;100.00;98282.56;5033468;28;20198;-74
2022/11/17 02:17:33;;;;;;;5.72;3.00;;;;;;;10.22;100.00;98276.88;5032092;28;20228;-73
2022/11/17 02:20:05;;;;;;;6.07;3.08;;;;;;;10.17;100.00;98268.31;5036144;28;20296;-73
2022/11/17 02:22:55;;;;;;;3.97;2.90;;;;;;;10.21;100.00;98269.81;5036843;28;20224;-74
2022/11/17 02:25:42;;;;;;;5.60;3.42;;;;;;;10.19;100.00;98256.47;5034584;28;20620;-74
2022/11/17 02:28:17;;;;;;;4.28;3.30;;;;;;;10.25;100.00;98260.53;5039113;28;20593;-73
2022/11/17 02:30:55;;;;;;;7.60;2.85;;;;;;;10.17;100.00;98269.16;5034095;28;20207;-75
2022/11/17 02:33:34;;;;;;;5.57;2.97;;;;;;;10.18;100.00;98261.97;5031488;28;20197;-73
2022/11/17 02:36:04;;;;;;;4.45;2.90;;;;;;;10.22;100.00;98247.28;5034715;28;20677;-73
2022/11/17 02:38:38;;;;;;;8.00;2.70;;;;;;;10.17;100.00;98247.66;5041754;28;20227;-73
2022/11/17 02:41:11;;;;;;;6.78;3.05;;;;;;;10.22;100.00;98239.22;5037011;28;20282;-75
2022/11/17 02:46:32;;;;;;;6.93;3.80;;;;;;;10.11;100.00;98233.84;5032773;28;20244;-74
2022/11/17 02:49:03;;;;;;;5.47;2.95;;;;;;;10.12;100.00;98247.16;5038021;28;20253;-76
2022/11/17 02:51:32;;;;;;;6.60;4.05;;;;;;;10.07;100.00;98238.59;5041424;28;20288;-72
2022/11/17 02:53:59;;;;;;;4.20;3.22;;;;;;;10.05;100.00;98232.47;5053382;28;20219;-72
2022/11/17 02:56:26;;;;;;;5.65;3.40;;;;;;;10.04;100.00;98236.16;5039883;28;20252;-73
2022/11/17 02:58:58;;;;;;;3.63;2.92;;;;;;;10.06;100.00;98217.19;5045187;28;20237;-75
2022/11/17 03:01:53;;;;;;;8.43;3.53;;;;;;;10.06;100.00;98215.34;5042627;28;20196;-73
2022/11/17 03:04:30;;;;;;;7.22;3.30;;;;;;;10.09;100.00;98215.13;5040961;28;20200;-73
2022/11/17 03:07:08;;;;;;;8.88;3.28;;;;;;;10.05;100.00;98213.66;5042372;28;20290;-74
2022/11/17 03:09:46;;;;;;;7.30;4.00;;;;;;;10.05;100.00;98210.97;5036908;28;20561;-73
2022/11/17 03:12:20;;;;;;;6.40;3.80;;;;;;;10.00;100.00;98213.19;5032017;28;20202;-72
2022/11/17 03:14:55;;;;;;;4.18;3.03;;;;;;;10.03;100.00;98210.22;5039490;28;20201;-74
2022/11/17 03:17:28;;;;;;;5.88;3.40;;;;;;;10.04;100.00;98206.59;5037343;28;20213;-76
2022/11/17 03:20:01;;;;;;;5.28;3.35;;;;;;;9.91;100.00;98197.75;5028312;28;20213;-75
2022/11/17 03:22:34;;;;;;;6.22;3.97;;;;;;;9.90;100.00;98185.28;5034437;28;20206;-75
2022/11/17 03:25:04;;;;;;;6.75;3.40;;;;;;;9.87;100.00;98190.91;5036958;28;20194;-74
2022/11/17 03:27:35;;;;;;;8.45;4.40;;;;;;;9.85;100.00;98182.09;5034550;28;20227;-73
2022/11/17 03:30:06;;;;;;;5.07;3.70;;;;;;;9.76;100.00;98167.53;5041068;28;20194;-73
2022/11/17 03:32:37;;;;;;;15.60;9.40;;;;;;;9.75;100.00;98160.47;5038327;28;20201;-72
2022/11/17 03:35:08;;;;;;;5.70;4.43;;;;;;;9.80;100.00;98155.56;5047409;28;20201;-75
2022/11/17 03:37:39;;;;;;;5.75;4.38;;;;;;;9.77;100.00;98159.38;5026860;28;20222;-72
2022/11/17 03:40:11;;;;;;;5.32;3.10;;;;;;;9.75;100.00;98152.41;5036133;28;20217;-72
2022/11/17 03:42:41;;;;;;;4.72;3.83;;;;;;;9.81;100.00;98157.28;5037070;28;20280;-74
2022/11/17 03:45:15;;;;;;;5.20;3.72;;;;;;;9.77;100.00;98159.38;5041254;28;20667;-75
2022/11/17 03:47:43;;;;;;;9.43;3.60;;;;;;;9.79;100.00;98151.16;5040930;22;20230;-74
2022/11/17 03:50:14;;;;;;;6.28;3.80;;;;;;;9.77;100.00;98155.81;5043526;28;20208;-73
2022/11/17 03:52:42;;;;;;;6.45;3.75;;;;;;;9.71;100.00;98154.47;5043688;28;20193;-73
2022/11/17 03:55:09;;;;;;;5.90;4.10;;;;;;;9.77;100.00;98153.13;5049133;28;20208;-70
2022/11/17 03:57:42;;;;;;;5.05;3.50;;;;;;;9.79;100.00;98152.03;5044517;28;20221;-71
2022/11/17 04:00:14;;;;;;;8.25;3.97;;;;;;;9.75;100.00;98150.56;5043768;28;20212;-75
2022/11/17 04:02:41;;;;;;;7.40;4.05;;;;;;;9.73;100.00;98146.28;5047659;28;20203;-73
2022/11/17 04:05:09;;;;;;;7.78;3.80;;;;;;;9.80;100.00;98152.88;5051207;28;20202;-74
2022/11/17 04:07:38;;;;;;;4.15;3.20;;;;;;;9.75;100.00;98145.19;5032235;28;20723;-73
2022/11/17 04:10:07;;;;;;;11.13;3.67;;;;;;;9.78;100.00;98142.25;5042545;28;20213;-75
2022/11/17 04:18:18;;;;;;;6.15;3.10;;;;;;;9.92;100.00;98138.47;4994970;28;20239;-73
2022/11/17 04:20:49;;;;;;;5.95;3.50;;;;;;;9.94;100.00;98131.16;4993154;28;20235;-73
2022/11/17 04:23:16;;;;;;;4.07;3.40;;;;;;;9.93;100.00;98133.97;4993961;28;20195;-75
2022/11/17 04:28:38;;;;;;;6.93;3.25;;;;;;;10.06;100.00;98131.16;4988168;28;20230;-72
2022/11/17 04:31:09;;;;;;;4.70;3.17;;;;;;;10.05;100.00;98137.53;4977414;28;20196;-72
2022/11/17 04:33:37;;;;;;;4.18;3.38;;;;;;;10.01;100.00;98134.22;4989543;28;20199;-73
2022/11/17 04:36:04;;;;;;;6.28;3.50;;;;;;;10.01;100.00;98144.97;4977862;28;20623;-73
2022/11/17 04:38:30;;;;;;;4.18;2.42;;;;;;;10.05;100.00;98151.81;4979131;28;20219;-72
2022/11/17 04:43:47;;;;;;;3.85;2.97;;;;;;;10.08;100.00;98140.81;4985620;28;20219;-73
2022/11/17 04:46:15;;;;;;;3.97;2.70;;;;;;;10.11;100.00;98137.91;5004938;28;20212;-73
2022/11/17 04:48:41;;;;;;;4.50;3.13;;;;;;;10.11;100.00;98137.91;5050057;28;20253;-72
2022/11/17 04:51:08;;;;;;;7.55;3.58;;;;;;;10.13;100.00;98138.63;5043730;28;20284;-74
2022/11/17 04:53:36;;;;;;;4.35;3.33;;;;;;;10.12;100.00;98134.22;5028146;28;20233;-74
2022/11/17 04:56:03;;;;;;;3.88;3.45;;;;;;;10.10;100.00;98129.94;5045878;28;20244;-75
2022/11/17 04:58:30;;;;;;;4.53;4.13;;;;;;;10.11;100.00;98135.22;5046150;28;20228;-73
2022/11/17 05:01:11;;;;;;;4.15;3.38;;;;;;;10.13;100.00;98133.25;5036740;28;20224;-73
2022/11/17 05:03:39;;;;;;;5.28;4.40;;;;;;;10.14;100.00;98143.00;5031722;28;20197;-73
2022/11/17 05:06:06;;;;;;;6.15;3.55;;;;;;;10.13;100.00;98135.94;5044711;28;20222;-74
2022/11/17 05:08:35;;;;;;;5.82;4.03;;;;;;;10.13;100.00;98122.50;5040554;28;20260;-74
2022/11/17 05:13:48;;;;;;;7.45;3.50;;;;;;;10.11;100.00;98128.97;5038319;28;20686;-74
2022/11/17 05:19:00;;;;;;;4.45;2.88;;;;;;;10.11;100.00;98135.22;5029403;28;20291;-72
2022/11/17 05:21:26;;;;;;;4.55;3.00;;;;;;;10.21;100.00;98138.84;5038683;28;20212;-72
2022/11/17 05:23:54;;;;;;;2.88;2.33;;;;;;;10.42;100.00;98132.75;5040130;28;20202;-75
2022/11/17 05:26:23;;;;;;;5.13;2.55;;;;;;;10.49;100.00;98134.00;5037737;28;20198;-75
2022/11/17 05:28:49;;;;;;;3.92;1.90;;;;;;;10.51;100.00;98133.84;5037862;28;20245;-74
2022/11/17 05:31:16;;;;;;;2.95;1.75;;;;;;;10.55;100.00;98138.00;5045794;28;20669;-74
2022/11/17 05:33:43;;;;;;;2.70;1.70;;;;;;;10.45;100.00;98137.91;5040815;28;20723;-73
2022/11/17 05:36:11;;;;;;;5.03;1.85;;;;;;;10.42;100.00;98141.72;5039771;28;20204;-72
2022/11/17 05:38:38;;;;;;;2.35;1.75;;;;;;;10.44;100.00;98125.41;5035510;28;20778;-73
2022/11/17 05:41:04;;;;;;;3.60;1.63;;;;;;;10.41;100.00;98136.44;5036699;28;20687;-74
2022/11/17 05:43:31;;;;;;;2.97;1.63;;;;;;;10.34;100.00;98128.00;5044788;28;20197;-73
2022/11/17 05:45:58;;;;;;;2.47;1.50;;;;;;;10.31;100.00;98124.69;5033295;28;20481;-75
2022/11/17 05:48:25;;;;;;;4.45;1.80;;;;;;;10.34;100.00;98119.09;5038766;28;20281;-73
2022/11/17 05:50:52;;;;;;;2.75;1.90;;;;;;;10.28;100.00;98119.53;5042220;28;20255;-73
2022/11/17 05:53:20;;;;;;;3.58;1.75;;;;;;;10.27;100.00;98121.38;5044138;28;20209;-73
2022/11/17 05:55:46;;;;;;;1.98;1.60;;;;;;;10.33;100.00;98130.81;5034186;28;20198;-72
2022/11/17 05:58:21;;;;;;;3.55;1.50;;;;;;;10.38;100.00;98134.00;5027613;28;20217;-73
2022/11/17 06:00:47;;;;;;;2.92;1.80;;;;;;;10.34;100.00;98138.78;5026639;28;20263;-71
2022/11/17 06:03:18;;;;;;;2.55;1.70;;;;;;;10.29;100.00;98137.41;5062989;28;20261;-74
2022/11/17 06:05:45;;;;;;;2.85;1.60;;;;;;;10.28;100.00;98135.69;5063100;28;20321;-75
2022/11/17 06:08:11;;;;;;;4.00;1.90;;;;;;;10.28;100.00;98136.53;5033090;28;20240;-76
2022/11/17 06:10:39;;;;;;;2.83;2.20;;;;;;;10.30;100.00;98133.75;5033433;28;20194;-75
2022/11/17 06:13:06;;;;;;;3.40;2.05;;;;;;;10.29;100.00;98123.97;5037118;28;20198;-74
2022/11/17 06:15:34;;;;;;;3.40;2.50;;;;;;;10.31;100.00;98122.88;5040065;28;20290;-75
2022/11/17 06:18:05;;;;;;;2.38;2.13;;;;;;;10.33;100.00;98117.38;5036911;28;20736;-75
2022/11/17 06:20:35;;;;;;;5.70;2.40;;;;;;;10.31;100.00;98119.31;5041521;28;20221;-74
2022/11/17 06:23:05;;;;;;;8.23;3.88;;;;;;;10.32;100.00;98121.91;5046868;28;20194;-74
2022/11/17 06:25:33;;;;;;;4.15;2.28;;;;;;;10.33;100.00;98120.06;5054290;28;20205;-74
2022/11/17 06:28:03;;;;;;;4.15;2.13;;;;;;;10.29;100.00;98118.59;5055351;28;20312;-74
2022/11/17 06:30:29;;;;;;;5.22;1.70;;;;;;;10.34;100.00;98119.09;5058363;28;20309;-73
2022/11/17 06:32:59;;;;;;;3.13;2.15;;;;;;;10.40;100.00;98114.06;5064656;28;20217;-72
2022/11/17 06:35:27;;;;;;;2.20;1.38;;;;;;;10.48;100.00;98120.66;5058452;28;20213;-72
2022/11/17 06:37:54;;;;;;;4.80;2.00;;;;;;;10.49;100.00;98120.53;5059014;28;20225;-74
2022/11/17 06:40:20;;;;;;;4.43;2.08;;;;;;;10.49;100.00;98117.84;5060911;28;20230;-74
2022/11/17 06:43:08;;;;;;;3.78;2.10;;;;;;;10.51;100.00;98121.25;5061220;28;20245;-73
2022/11/17 06:45:37;;;;;;;3.58;1.90;;;;;;;10.52;100.00;98114.06;5060680;28;20181;-73
2022/11/17 06:48:05;;;;;;;2.92;1.38;;;;;;;10.53;100.00;98115.75;5055277;28;20281;-71
2022/11/17 06:50:32;;;;;;;4.00;1.77;;;;;;;10.63;100.00;98122.97;5072906;28;20671;-72
2022/11/17 06:53:00;;;;;;;2.22;1.60;;;;;;;10.58;100.00;98133.25;5059178;28;20221;-71
2022/11/17 06:55:26;;;;;;;2.05;1.35;;;;;;;10.70;100.00;98123.31;5051558;28;20265;-72
2022/11/17 06:57:58;;;;;;;5.00;2.00;;;;;;;10.69;100.00;98126.97;5049978;28;20256;-73
2022/11/17 07:00:25;;;;;;;3.83;1.55;;;;;;;10.75;100.00;98125.63;5035828;28;20221;-73
2022/11/17 07:02:52;;;;;;;4.57;1.80;;;;;;;10.78;100.00;98119.97;5055906;28;20257;-71
2022/11/17 07:05:19;;;;;;;2.67;1.65;;;;;;;10.91;100.00;98109.06;5060973;28;20197;-72
2022/11/17 07:07:45;;;;;;;4.25;1.40;;;;;;;10.99;100.00;98098.47;5061530;28;20316;-72
2022/11/17 07:10:12;;;;;;;2.42;1.58;;;;;;;10.97;100.00;98106.72;5045079;28;20281;-72
2022/11/17 07:12:39;;;;;;;2.13;1.33;;;;;;;11.02;100.00;98104.47;5051969;28;20197;-72
2022/11/17 07:15:06;;;;;;;5.18;1.75;;;;;;;10.95;100.00;98114.06;5039352;28;20197;-72
2022/11/17 07:17:32;;;;;;;3.70;1.80;;;;;;;10.90;100.00;98105.50;5049985;28;20224;-74
2022/11/17 07:20:01;;;;;;;4.30;1.50;;;;;;;10.85;100.00;98105.00;5047784;28;20220;-74
2022/11/17 07:22:27;;;;;;;3.17;1.60;;;;;;;10.89;100.00;98098.41;5039478;28;20211;-71
2022/11/17 07:24:54;;;;;;;2.75;1.58;;;;;;;10.85;100.00;98108.59;5037605;28;20569;-73
2022/11/17 07:27:20;;;;;;;3.65;1.50;;;;;;;10.98;100.00;98094.09;5027844;28;20288;-72
2022/11/17 07:29:47;;;;;;;4.63;1.60;;;;;;;11.01;100.00;98097.41;5047056;28;20190;-72
2022/11/17 07:32:14;;;;;;;2.08;1.35;;;;;;;11.05;100.00;98090.75;5032131;28;20340;-73
2022/11/17 07:34:41;;;;;;;4.13;1.33;;;;;;;11.11;100.00;98093.94;5046064;28;20663;-73
2022/11/17 07:37:09;;;;;;;2.70;1.70;;;;;;;11.09;100.00;98090.50;5047657;28;20194;-75
2022/11/17 07:39:35;;;;;;;3.03;1.65;;;;;;;11.20;100.00;98093.16;5025889;28;20203;-75
2022/11/17 07:42:04;;;;;;;3.25;1.45;;;;;;;11.31;100.00;98090.41;5035589;28;20280;-73
2022/11/17 07:44:30;;;;;;;3.60;2.05;;;;;;;11.25;100.00;98086.38;5042705;28;20257;-75
2022/11/17 07:46:57;;;;;;;3.10;1.30;;;;;;;11.34;100.00;98087.44;5041809;28;20228;-75
2022/11/17 07:49:24;;;;;;;2.30;1.58;;;;;;;11.38;100.00;98082.66;5046740;28;20240;-73
2022/11/17 07:51:50;;;;;;;4.43;2.00;;;;;;;11.38;100.00;98078.09;5047773;28;20193;-75
2022/11/17 07:54:18;;;;;;;3.50;1.30;;;;;;;11.42;100.00;98082.25;5058636;28;20197;-77
2022/11/17 07:56:45;;;;;;;4.38;1.50;;;;;;;11.43;100.00;98078.56;5054025;28;20200;-74
2022/11/17 07:59:12;;;;;;;5.78;1.63;;;;;;;11.56;100.00;98072.13;5062006;28;20245;-74
2022/11/17 08:01:38;;;;;;;3.30;1.27;;;;;;;11.61;100.00;98086.06;5074315;28;20212;-77
2022/11/17 08:04:08;;;;;;;5.22;2.25;;;;;;;11.72;100.00;98091.38;5067672;28;20194;-75
2022/11/17 08:06:36;;;;;;;2.95;1.30;;;;;;;11.87;100.00;98086.47;5063616;28;20205;-76
2022/11/17 08:09:05;;;;;;;2.25;1.10;;;;;;;12.06;100.00;98080.34;5061718;28;20233;-77
2022/11/17 08:11:33;;;;;;;1.80;1.50;;;;;;;12.51;100.00;98072.69;5070512;28;20181;-76
2022/11/17 08:13:59;;;;;;;5.13;1.67;;;;;;;12.76;100.00;98080.41;5070705;28;20234;-77
2022/11/17 08:16:29;;;;;;;4.03;1.80;;;;;;;12.46;100.00;98076.81;5066756;28;20209;-76
2022/11/17 08:18:56;;;;;;;3.55;1.50;;;;;;;12.22;100.00;98078.00;5052299;28;20244;-75
2022/11/17 08:21:22;;;;;;;3.45;2.00;;;;;;;12.29;100.00;98078.31;5046199;28;20316;-74
2022/11/17 08:23:50;;;;;;;2.63;1.30;;;;;;;12.27;100.00;98078.44;5055168;28;20201;-75
2022/11/17 08:26:16;;;;;;;5.75;1.70;;;;;;;12.27;100.00;98074.88;5054109;28;20554;-74
2022/11/17 08:28:44;;;;;;;4.95;1.58;;;;;;;12.23;100.00;98081.53;5044122;28;20237;-75
2022/11/17 08:31:11;;;;;;;4.78;1.90;;;;;;;12.10;100.00;98093.44;5035580;28;20194;-74
2022/11/17 08:33:37;;;;;;;1.92;1.73;;;;;;;12.03;100.00;98083.31;5040203;28;20685;-74
2022/11/17 08:36:05;;;;;;;8.85;1.67;;;;;;;12.07;100.00;98087.44;5038019;28;20201;-73
2022/11/17 08:38:32;;;;;;;3.80;1.90;;;;;;;12.07;100.00;98092.84;5049154;28;20219;-75
2022/11/17 08:41:02;;;;;;;3.35;1.23;;;;;;;12.05;100.00;98076.81;5034705;28;20217;-74
2022/11/17 08:43:29;;;;;;;5.57;1.67;;;;;;;12.11;100.00;98091.59;5048185;28;20201;-73
2022/11/17 08:45:57;;;;;;;5.45;1.98;;;;;;;12.16;100.00;98081.22;5039494;28;20725;-74
2022/11/17 08:48:24;;;;;;;3.15;1.42;;;;;;;12.21;100.00;98068.22;5041841;28;20320;-74
2022/11/17 08:50:50;;;;;;;4.20;1.50;;;;;;;12.18;100.00;98081.94;5034240;28;20660;-75
2022/11/17 08:53:19;;;;;;;4.40;1.60;;;;;;;12.18;100.00;98071.16;5043678;28;20202;-76
2022/11/17 08:55:46;;;;;;;2.30;1.23;;;;;;;12.15;100.00;98078.69;5045237;28;20216;-75
2022/11/17 08:58:13;;;;;;;4.50;2.20;;;;;;;12.19;100.00;98072.88;5040528;28;20209;-74
2022/11/17 09:00:40;;;;;;;3.55;1.55;;;;;;;12.27;100.00;98072.19;5044387;28;20224;-74
2022/11/17 09:03:10;;;;;;;3.47;1.35;;;;;;;12.50;100.00;98065.59;5047664;28;20217;-77
2022/11/17 09:05:38;;;;;;;4.75;1.55;;;;;;;12.87;100.00;98055.97;5049407;28;20947;-75
2022/11/17 09:08:05;;;;;;;2.90;1.40;;;;;;;12.97;100.00;98061.38;5031953;28;20226;-75
2022/11/17 09:10:32;;;;;;;5.30;1.50;;;;;;;12.89;100.00;98075.59;5042063;28;20199;-74
2022/11/17 09:12:58;;;;;;;3.22;1.73;;;;;;;12.86;100.00;98071.31;5054604;28;20588;-74
2022/11/17 09:15:25;;;;;;;6.00;1.73;;;;;;;12.87;100.00;98072.19;5036676;28;20244;-74
2022/11/17 09:17:52;;;;;;;5.05;1.60;;;;;;;12.91;100.00;98074.47;5035917;28;20228;-74
2022/11/17 09:20:20;;;;;;;5.00;1.20;;;;;;;13.70;100.00;98081.56;5041808;28;20257;-74
2022/11/17 09:22:46;;;;;;;4.70;1.30;;;;;;;14.46;100.00;98088.66;5050360;28;20199;-73
2022/11/17 09:25:14;;;;;;;3.50;1.30;;;;;;;14.82;100.00;98079.78;5038794;28;20208;-75
2022/11/17 09:27:41;;;;;;;4.90;1.00;;;;;;;14.91;100.00;98087.00;5044614;28;20217;-75
2022/11/17 09:30:08;;;;;;;3.60;1.35;;;;;;;14.96;100.00;98104.50;5037280;28;20204;-75
2022/11/17 09:32:35;;;;;;;3.58;1.70;;;;;;;14.78;100.00;98101.75;5041367;28;20193;-74
2022/11/17 09:35:02;;;;;;;6.32;1.65;;;;;;;14.69;100.00;98118.91;5041658;28;20196;-74
2022/11/17 09:37:30;;;;;;;4.35;1.20;;;;;;;15.31;100.00;98123.63;5048648;28;20232;-76
2022/11/17 09:39:57;;;;;;;3.20;1.30;;;;;;;14.81;100.00;98119.56;5051632;28;20198;-74
2022/11/17 09:42:23;;;;;;;3.70;1.55;;;;;;;14.82;100.00;98137.53;5043570;28;20280;-74
2022/11/17 09:44:56;;;;;;;3.75;1.10;;;;;;;14.38;100.00;98140.88;5039682;28;20292;-74
2022/11/17 09:47:32;;;;;;;5.50;1.90;;;;;;;14.15;100.00;98150.34;5053537;28;20189;-74
2022/11/17 09:50:02;;;;;;;3.38;1.50;;;;;;;13.75;100.00;98146.03;5036437;28;20200;-74
2022/11/17 09:52:34;;;;;;;7.78;1.92;;;;;;;13.68;100.00;98155.69;5048836;28;20216;-76
2022/11/17 09:55:04;;;;;;;5.20;1.60;;;;;;;13.45;100.00;98153.28;5044739;28;20198;-75
2022/11/17 09:57:37;;;;;;;7.13;1.98;;;;;;;13.39;100.00;98161.13;5050901;28;20633;-76
2022/11/17 10:00:14;;;;;;;4.57;1.55;;;;;;;13.35;100.00;98166.81;5035255;28;20229;-77
2022/11/17 10:02:41;;;;;;;4.97;1.48;;;;;;;13.47;100.00;98175.63;5040359;28;20575;-77
2022/11/17 10:05:13;;;;;;;4.90;1.60;;;;;;;13.29;100.00;98164.66;5033568;28;20686;-74
2022/11/17 10:07:48;;;;;;;3.10;1.40;;;;;;;13.12;100.00;98178.84;5035902;28;20225;-76
2022/11/17 10:10:20;;;;;;;4.68;1.98;;;;;;;13.20;100.00;98170.88;5033578;28;20208;-75
2022/11/17 10:12:51;;;;;;;2.92;1.50;;;;;;;13.18;100.00;98185.53;5051654;28;20196;-76
2022/11/17 10:15:25;;;;;;;5.65;1.38;;;;;;;13.05;100.00;98183.97;5044525;28;20198;-76
2022/11/17 10:17:52;;;;;;;4.75;1.70;;;;;;;13.05;100.00;98183.13;5046475;28;20224;-77
2022/11/17 10:20:19;;;;;;;5.97;1.55;;;;;;;13.13;100.00;98178.69;5053636;28;20201;-74
2022/11/17 10:22:49;;;;;;;3.78;1.60;;;;;;;13.24;100.00;98193.94;5044055;28;20203;-75
2022/11/17 10:25:35;;;;;;;4.38;1.60;;;;;;;13.46;100.00;98181.19;5030919;28;20199;-75
2022/11/17 10:28:02;;;;;;;5.53;1.55;;;;;;;13.79;100.00;98192.56;5044587;28;20274;-75
2022/11/17 10:30:29;;;;;;;4.10;1.80;;;;;;;14.60;100.00;98177.56;5034460;28;20222;-74
2022/11/17 10:32:57;;;;;;;9.45;2.28;;;;;;;14.95;100.00;98186.81;5039757;28;20568;-76
2022/11/17 10:35:25;;;;;;;6.57;1.73;;;;;;;14.36;100.00;98186.19;5034850;28;20758;-76
2022/11/17 10:37:56;;;;;;;6.10;1.75;;;;;;;14.12;100.00;98188.53;5036544;28;20691;-76
2022/11/17 10:40:25;;;;;;;5.63;1.58;;;;;;;13.74;100.00;98193.00;5047620;28;20192;-76
2022/11/17 10:43:02;;;;;;;8.30;1.80;;;;;;;13.42;100.00;98185.19;5016444;28;20683;-76
2022/11/17 10:45:29;;;;;;;6.60;1.90;;;;;;;13.33;100.00;98186.88;5033135;28;20440;-73
2022/11/17 10:48:09;;;;;;;5.57;1.65;;;;;;;13.44;100.00;98192.16;5041525;28;20257;-74
2022/11/17 10:50:36;;;;;;;6.15;1.25;;;;;;;13.47;100.00;98189.16;5040489;28;20672;-75
2022/11/17 10:53:23;;;;;;;5.22;1.50;;;;;;;13.65;100.00;98188.44;5047023;28;20198;-74
2022/11/17 10:55:55;;;;;;;4.35;1.52;;;;;;;13.86;100.00;98183.75;5018324;28;20190;-75
2022/11/17 10:58:24;;;;;;;3.72;1.75;;;;;;;13.97;100.00;98175.47;5042950;28;20220;-76
2022/11/17 11:00:54;;;;;;;3.75;1.35;;;;;;;14.84;100.00;98178.88;5043655;28;20561;-75
2022/11/17 11:03:22;;;;;;;5.15;1.38;;;;;;;15.35;100.00;98181.97;5032767;28;20204;-75
2022/11/17 11:05:56;;;;;;;6.22;2.03;;;;;;;14.36;100.00;98182.63;5044729;28;20220;-75
2022/11/17 11:08:27;;;;;;;5.43;1.95;;;;;;;14.18;100.00;98174.41;5046544;28;20228;-76
2022/11/17 11:10:56;;;;;;;5.15;1.60;;;;;;;13.73;100.00;98188.59;5055498;28;20188;-75
2022/11/17 11:13:30;;;;;;;11.65;1.65;;;;;;;13.34;100.00;98199.38;5051606;28;20202;-75
2022/11/17 11:15:56;;;;;;;3.55;1.35;;;;;;;12.97;100.00;98191.91;5051738;28;20668;-74
2022/11/17 11:18:23;;;;;;;9.90;1.83;;;;;;;12.74;100.00;98185.88;5047492;28;20244;-76
2022/11/17 11:20:58;;;;;;;6.28;1.70;;;;;;;12.45;100.00;98191.16;5030406;28;20226;-75
2022/11/17 11:23:39;;;;;;;5.15;1.50;;;;;;;12.18;100.00;98214.16;5041504;28;20208;-75
2022/11/17 11:26:17;;;;;;;4.68;1.90;;;;;;;12.02;100.00;98222.72;5032533;28;20202;-76
2022/11/17 11:28:59;;;;;;;5.50;2.20;;;;;;;11.92;100.00;98216.44;5025542;28;20218;-75
2022/11/17 11:31:33;;;;;;;6.60;1.85;;;;;;;11.81;100.00;98213.75;5029781;28;20190;-76
2022/11/17 11:34:14;;;;;;;4.60;2.00;;;;;;;11.89;100.00;98216.66;5035287;28;20204;-75
2022/11/17 11:36:44;;;;;;;5.97;1.90;;;;;;;11.96;100.00;98217.00;5036201;28;20204;-74
2022/11/17 11:39:25;;;;;;;9.85;2.38;;;;;;;12.03;100.00;98228.97;5035227;28;20292;-76
2022/11/17 11:42:20;;;;;;;5.93;1.92;;;;;;;11.99;100.00;98233.78;5035328;28;20212;-74
2022/11/17 11:45:01;;;;;;;6.40;2.35;;;;;;;12.16;100.00;98234.19;5002910;28;20290;-76
2022/11/17 11:47:42;;;;;;;5.93;2.45;;;;;;;12.34;100.00;98226.31;5010711;28;20222;-76
2022/11/17 11:50:15;;;;;;;7.43;1.75;;;;;;;12.33;100.00;98230.03;4983552;28;20609;-76
2022/11/17 11:52:46;;;;;;;6.40;2.30;;;;;;;12.26;100.00;98221.63;5005952;28;20195;-75
2022/11/17 11:55:21;;;;;;;4.47;1.90;;;;;;;12.18;100.00;98219.56;4996375;28;20196;-76
2022/11/17 11:57:52;;;;;;;2.53;1.40;;;;;;;12.34;100.00;98223.63;5012739;28;20558;-76
2022/11/17 12:00:19;;;;;;;8.45;2.25;;;;;;;12.58;100.00;98234.13;4999366;28;20225;-75
2022/11/17 12:02:51;;;;;;;6.35;1.52;;;;;;;12.70;100.00;98220.38;5012986;28;20633;-74
2022/11/17 12:05:24;;;;;;;8.13;1.52;;;;;;;13.06;100.00;98218.09;5005130;28;20199;-75
2022/11/17 12:07:56;;;;;;;4.15;1.30;;;;;;;13.23;100.00;98229.19;5000864;28;20230;-75
2022/11/17 12:10:29;;;;;;;5.82;1.88;;;;;;;14.16;100.00;98222.44;4995098;28;20290;-75